sensor_id;sensor_type;location;lat;lon;timestamp;pressure;altitude;pressure_sealevel;temperature;humidity
51829;BME280;37881;48.024;8.774;2023-04-06T00:00:14;94020.00;;;-1.02;94.47
51829;BME280;37881;48.024;8.774;2023-04-06T00:02:41;94020.47;;;-1.12;95.62
51829;BME280;37881;48.024;8.774;2023-04-06T00:05:07;94006.78;;;-1.19;96.07
51829;BME280;37881;48.024;8.774;2023-04-06T00:07:34;94018.31;;;-1.19;95.76
51829;BME280;37881;48.024;8.774;2023-04-06T00:10:02;94018.44;;;-1.15;96.48
51829;BME280;37881;48.024;8.774;2023-04-06T00:12:29;94016.78;;;-1.20;96.05
51829;BME280;37881;48.024;8.774;2023-04-06T00:14:55;94015.09;;;-1.25;95.71
51829;BME280;37881;48.024;8.774;2023-04-06T00:17:22;94011.16;;;-1.27;96.04
51829;BME280;37881;48.024;8.774;2023-04-06T00:19:49;94014.88;;;-1.32;95.90
51829;BME280;37881;48.024;8.774;2023-04-06T00:22:16;94017.56;;;-1.32;96.01
51829;BME280;37881;48.024;8.774;2023-04-06T00:24:42;94011.59;;;-1.37;95.99
51829;BME280;37881;48.024;8.774;2023-04-06T00:27:09;94009.81;;;-1.33;96.14
51829;BME280;37881;48.024;8.774;2023-04-06T00:29:36;94007.38;;;-1.38;97.25
51829;BME280;37881;48.024;8.774;2023-04-06T00:32:03;94007.69;;;-1.40;97.06
51829;BME280;37881;48.024;8.774;2023-04-06T00:34:30;93998.59;;;-1.48;97.00
51829;BME280;37881;48.024;8.774;2023-04-06T00:36:56;94006.81;;;-1.44;98.42
51829;BME280;37881;48.024;8.774;2023-04-06T00:39:23;93999.94;;;-1.42;98.77
51829;BME280;37881;48.024;8.774;2023-04-06T00:41:51;94006.22;;;-1.50;98.76
51829;BME280;37881;48.024;8.774;2023-04-06T00:44:19;93992.00;;;-1.50;100.00
51829;BME280;37881;48.024;8.774;2023-04-06T00:46:46;93993.03;;;-1.55;99.38
51829;BME280;37881;48.024;8.774;2023-04-06T00:49:13;94003.41;;;-1.53;100.00
51829;BME280;37881;48.024;8.774;2023-04-06T00:51:40;93994.47;;;-1.57;100.00
51829;BME280;37881;48.024;8.774;2023-04-06T00:54:06;93999.38;;;-1.59;100.00
51829;BME280;37881;48.024;8.774;2023-04-06T00:56:33;93986.72;;;-1.59;100.00
51829;BME280;37881;48.024;8.774;2023-04-06T00:59:00;93984.72;;;-1.62;100.00
51829;BME280;37881;48.024;8.774;2023-04-06T01:01:28;93992.53;;;-1.69;100.00
51829;BME280;37881;48.024;8.774;2023-04-06T01:03:55;93993.88;;;-1.75;100.00
51829;BME280;37881;48.024;8.774;2023-04-06T01:06:22;93981.25;;;-1.75;100.00
51829;BME280;37881;48.024;8.774;2023-04-06T01:08:48;93988.63;;;-1.84;100.00
51829;BME280;37881;48.024;8.774;2023-04-06T01:11:15;93983.56;;;-1.86;100.00
51829;BME280;37881;48.024;8.774;2023-04-06T01:13:42;93987.03;;;-1.85;100.00
51829;BME280;37881;48.024;8.774;2023-04-06T01:16:09;93987.84;;;-1.85;100.00
51829;BME280;37881;48.024;8.774;2023-04-06T01:18:37;93988.50;;;-1.88;100.00
51829;BME280;37881;48.024;8.774;2023-04-06T01:21:04;93978.44;;;-1.91;100.00
51829;BME280;37881;48.024;8.774;2023-04-06T01:23:31;93975.59;;;-1.94;100.00
51829;BME280;37881;48.024;8.774;2023-04-06T01:25:58;93987.16;;;-1.94;100.00
51829;BME280;37881;48.024;8.774;2023-04-06T01:28:24;93981.19;;;-1.99;100.00
51829;BME280;37881;48.024;8.774;2023-04-06T01:30:51;93970.78;;;-2.01;100.00
51829;BME280;37881;48.024;8.774;2023-04-06T01:33:18;93978.75;;;-2.05;100.00
51829;BME280;37881;48.024;8.774;2023-04-06T01:35:44;93964.84;;;-2.07;100.00
51829;BME280;37881;48.024;8.774;2023-04-06T01:38:11;93978.16;;;-2.10;100.00
51829;BME280;37881;48.024;8.774;2023-04-06T01:40:38;93973.44;;;-2.13;100.00
51829;BME280;37881;48.024;8.774;2023-04-06T01:43:05;93971.75;;;-2.18;100.00
51829;BME280;37881;48.024;8.774;2023-04-06T01:45:33;93971.63;;;-2.22;100.00
51829;BME280;37881;48.024;8.774;2023-04-06T01:47:59;93965.16;;;-2.21;100.00
51829;BME280;37881;48.024;8.774;2023-04-06T01:50:26;93962.91;;;-2.18;100.00
51829;BME280;37881;48.024;8.774;2023-04-06T01:52:53;93969.75;;;-2.21;100.00
51829;BME280;37881;48.024;8.774;2023-04-06T01:55:20;93966.72;;;-2.19;100.00
51829;BME280;37881;48.024;8.774;2023-04-06T01:57:47;93961.88;;;-2.26;100.00
51829;BME280;37881;48.024;8.774;2023-04-06T02:00:14;93961.88;;;-2.26;100.00
51829;BME280;37881;48.024;8.774;2023-04-06T02:02:41;93962.56;;;-2.29;100.00
51829;BME280;37881;48.024;8.774;2023-04-06T02:05:08;93962.13;;;-2.31;100.00
51829;BME280;37881;48.024;8.774;2023-04-06T02:07:35;93964.00;;;-2.32;100.00
51829;BME280;37881;48.024;8.774;2023-04-06T02:10:02;93953.94;;;-2.35;100.00
51829;BME280;37881;48.024;8.774;2023-04-06T02:12:29;93959.94;;;-2.38;100.00
51829;BME280;37881;48.024;8.774;2023-04-06T02:14:55;93962.06;;;-2.44;100.00
51829;BME280;37881;48.024;8.774;2023-04-06T02:17:22;93962.06;;;-2.44;100.00
51829;BME280;37881;48.024;8.774;2023-04-06T02:19:49;93962.41;;;-2.45;100.00
51829;BME280;37881;48.024;8.774;2023-04-06T02:22:16;93958.91;;;-2.46;100.00
51829;BME280;37881;48.024;8.774;2023-04-06T02:24:43;93961.16;;;-2.48;100.00
51829;BME280;37881;48.024;8.774;2023-04-06T02:27:09;93952.63;;;-2.50;100.00
51829;BME280;37881;48.024;8.774;2023-04-06T02:29:36;93949.50;;;-2.52;100.00
51829;BME280;37881;48.024;8.774;2023-04-06T02:32:03;93958.25;;;-2.55;100.00
51829;BME280;37881;48.024;8.774;2023-04-06T02:34:30;93959.25;;;-2.59;100.00
51829;BME280;37881;48.024;8.774;2023-04-06T02:36:57;93956.88;;;-2.61;100.00
51829;BME280;37881;48.024;8.774;2023-04-06T02:39:24;93959.44;;;-2.65;100.00
51829;BME280;37881;48.024;8.774;2023-04-06T02:41:50;93953.94;;;-2.68;100.00
51829;BME280;37881;48.024;8.774;2023-04-06T02:44:17;93950.13;;;-2.67;100.00
51829;BME280;37881;48.024;8.774;2023-04-06T02:46:44;93950.78;;;-2.70;100.00
51829;BME280;37881;48.024;8.774;2023-04-06T02:49:10;93957.28;;;-2.71;100.00
51829;BME280;37881;48.024;8.774;2023-04-06T02:51:37;93950.19;;;-2.76;100.00
51829;BME280;37881;48.024;8.774;2023-04-06T02:54:04;93960.38;;;-2.82;100.00
51829;BME280;37881;48.024;8.774;2023-04-06T02:56:31;93952.97;;;-2.85;100.00
51829;BME280;37881;48.024;8.774;2023-04-06T02:58:58;93957.13;;;-2.87;100.00
51829;BME280;37881;48.024;8.774;2023-04-06T03:01:26;93949.97;;;-2.83;100.00
51829;BME280;37881;48.024;8.774;2023-04-06T03:03:53;93957.25;;;-2.84;100.00
51829;BME280;37881;48.024;8.774;2023-04-06T03:06:19;93953.75;;;-2.84;100.00
51829;BME280;37881;48.024;8.774;2023-04-06T03:08:46;93956.78;;;-2.86;100.00
51829;BME280;37881;48.024;8.774;2023-04-06T03:11:13;93949.84;;;-2.87;100.00
51829;BME280;37881;48.024;8.774;2023-04-06T03:13:40;93952.97;;;-2.85;100.00
51829;BME280;37881;48.024;8.774;2023-04-06T03:16:07;93951.44;;;-2.86;100.00
51829;BME280;37881;48.024;8.774;2023-04-06T03:18:34;93946.81;;;-2.85;100.00
51829;BME280;37881;48.024;8.774;2023-04-06T03:21:00;93954.88;;;-2.85;100.00
51829;BME280;37881;48.024;8.774;2023-04-06T03:23:27;93948.28;;;-2.88;100.00
51829;BME280;37881;48.024;8.774;2023-04-06T03:25:54;93954.94;;;-2.94;100.00
51829;BME280;37881;48.024;8.774;2023-04-06T03:28:21;93953.38;;;-2.95;100.00
51829;BME280;37881;48.024;8.774;2023-04-06T03:30:48;93954.16;;;-2.94;100.00
51829;BME280;37881;48.024;8.774;2023-04-06T03:33:15;93954.47;;;-2.96;100.00
51829;BME280;37881;48.024;8.774;2023-04-06T03:35:41;93953.25;;;-2.98;100.00
51829;BME280;37881;48.024;8.774;2023-04-06T03:38:08;93956.25;;;-3.00;100.00
51829;BME280;37881;48.024;8.774;2023-04-06T03:40:35;93959.94;;;-3.05;100.00
51829;BME280;37881;48.024;8.774;2023-04-06T03:43:02;93955.34;;;-3.04;100.00
51829;BME280;37881;48.024;8.774;2023-04-06T03:45:28;93960.38;;;-3.03;100.00
51829;BME280;37881;48.024;8.774;2023-04-06T03:47:55;93956.47;;;-3.05;100.00
51829;BME280;37881;48.024;8.774;2023-04-06T03:50:22;93960.25;;;-3.06;100.00
51829;BME280;37881;48.024;8.774;2023-04-06T03:52:49;93962.03;;;-3.10;100.00
51829;BME280;37881;48.024;8.774;2023-04-06T03:55:16;93965.53;;;-3.10;100.00
51829;BME280;37881;48.024;8.774;2023-04-06T03:57:42;93959.22;;;-3.14;100.00
51829;BME280;37881;48.024;8.774;2023-04-06T04:00:10;93962.69;;;-3.13;100.00
51829;BME280;37881;48.024;8.774;2023-04-06T04:02:36;93968.38;;;-3.15;100.00
51829;BME280;37881;48.024;8.774;2023-04-06T04:05:04;93967.16;;;-3.17;100.00
51829;BME280;37881;48.024;8.774;2023-04-06T04:07:31;93967.94;;;-3.17;100.00
51829;BME280;37881;48.024;8.774;2023-04-06T04:09:57;93972.06;;;-3.19;100.00
51829;BME280;37881;48.024;8.774;2023-04-06T04:12:24;93967.31;;;-3.23;100.00
51829;BME280;37881;48.024;8.774;2023-04-06T04:14:51;93957.25;;;-3.26;100.00
51829;BME280;37881;48.024;8.774;2023-04-06T04:17:17;93962.16;;;-3.28;100.00
51829;BME280;37881;48.024;8.774;2023-04-06T04:19:44;93958.38;;;-3.27;100.00
51829;BME280;37881;48.024;8.774;2023-04-06T04:22:11;93964.50;;;-3.26;100.00
51829;BME280;37881;48.024;8.774;2023-04-06T04:24:37;93965.63;;;-3.27;100.00
51829;BME280;37881;48.024;8.774;2023-04-06T04:27:04;93968.31;;;-3.27;100.00
51829;BME280;37881;48.024;8.774;2023-04-06T04:29:31;93964.41;;;-3.30;100.00
51829;BME280;37881;48.024;8.774;2023-04-06T04:31:58;93969.63;;;-3.33;100.00
51829;BME280;37881;48.024;8.774;2023-04-06T04:34:25;93968.72;;;-3.37;100.00
51829;BME280;37881;48.024;8.774;2023-04-06T04:36:52;93971.72;;;-3.39;100.00
51829;BME280;37881;48.024;8.774;2023-04-06T04:39:19;93975.16;;;-3.38;100.00
51829;BME280;37881;48.024;8.774;2023-04-06T04:41:46;93966.66;;;-3.41;100.00
51829;BME280;37881;48.024;8.774;2023-04-06T04:44:13;93966.97;;;-3.42;100.00
51829;BME280;37881;48.024;8.774;2023-04-06T04:46:39;93972.84;;;-3.40;100.00
51829;BME280;37881;48.024;8.774;2023-04-06T04:49:07;93971.25;;;-3.41;100.00
51829;BME280;37881;48.024;8.774;2023-04-06T04:51:34;93975.53;;;-3.40;100.00
51829;BME280;37881;48.024;8.774;2023-04-06T04:54:02;93967.94;;;-3.38;100.00
51829;BME280;37881;48.024;8.774;2023-04-06T04:56:29;93973.41;;;-3.34;100.00
51829;BME280;37881;48.024;8.774;2023-04-06T04:58:56;93974.84;;;-3.37;100.00
51829;BME280;37881;48.024;8.774;2023-04-06T05:01:23;93981.13;;;-3.33;100.00
51829;BME280;37881;48.024;8.774;2023-04-06T05:03:50;93977.16;;;-3.27;100.00
51829;BME280;37881;48.024;8.774;2023-04-06T05:06:17;93976.97;;;-3.22;100.00
51829;BME280;37881;48.024;8.774;2023-04-06T05:08:45;93984.16;;;-3.13;100.00
51829;BME280;37881;48.024;8.774;2023-04-06T05:11:12;93988.09;;;-3.11;100.00
51829;BME280;37881;48.024;8.774;2023-04-06T05:13:39;93986.19;;;-3.10;100.00
51829;BME280;37881;48.024;8.774;2023-04-06T05:16:06;93994.00;;;-3.17;100.00
51829;BME280;37881;48.024;8.774;2023-04-06T05:18:33;93990.59;;;-3.06;100.00
51829;BME280;37881;48.024;8.774;2023-04-06T05:21:00;93987.16;;;-2.94;100.00
51829;BME280;37881;48.024;8.774;2023-04-06T05:23:27;93989.84;;;-2.94;100.00
51829;BME280;37881;48.024;8.774;2023-04-06T05:25:53;93986.91;;;-3.01;100.00
51829;BME280;37881;48.024;8.774;2023-04-06T05:28:20;93986.97;;;-2.89;100.00
51829;BME280;37881;48.024;8.774;2023-04-06T05:30:47;93990.31;;;-2.92;100.00
51829;BME280;37881;48.024;8.774;2023-04-06T05:33:14;93995.81;;;-2.88;100.00
51829;BME280;37881;48.024;8.774;2023-04-06T05:35:41;93990.25;;;-2.83;100.00
51829;BME280;37881;48.024;8.774;2023-04-06T05:38:08;93997.00;;;-2.77;100.00
51829;BME280;37881;48.024;8.774;2023-04-06T05:40:37;93988.06;;;-2.69;100.00
51829;BME280;37881;48.024;8.774;2023-04-06T05:43:04;93995.72;;;-2.58;100.00
51829;BME280;37881;48.024;8.774;2023-04-06T05:45:31;93996.50;;;-2.58;100.00
51829;BME280;37881;48.024;8.774;2023-04-06T05:47:58;93997.00;;;-2.44;100.00
51829;BME280;37881;48.024;8.774;2023-04-06T05:50:25;93994.00;;;-2.30;100.00
51829;BME280;37881;48.024;8.774;2023-04-06T05:52:51;93999.78;;;-2.19;100.00
51829;BME280;37881;48.024;8.774;2023-04-06T05:55:18;93999.22;;;-2.12;100.00
51829;BME280;37881;48.024;8.774;2023-04-06T05:57:45;94001.31;;;-2.18;100.00
51829;BME280;37881;48.024;8.774;2023-04-06T06:00:12;94002.56;;;-2.15;100.00
51829;BME280;37881;48.024;8.774;2023-04-06T06:02:39;94004.59;;;-2.12;100.00
51829;BME280;37881;48.024;8.774;2023-04-06T06:05:06;94007.88;;;-2.07;100.00
51829;BME280;37881;48.024;8.774;2023-04-06T06:07:33;94002.72;;;-1.99;100.00
51829;BME280;37881;48.024;8.774;2023-04-06T06:10:00;94008.03;;;-2.24;100.00
51829;BME280;37881;48.024;8.774;2023-04-06T06:12:27;94002.94;;;-2.05;100.00
51829;BME280;37881;48.024;8.774;2023-04-06T06:14:54;94007.09;;;-2.07;100.00
51829;BME280;37881;48.024;8.774;2023-04-06T06:17:21;94007.66;;;-1.89;100.00
51829;BME280;37881;48.024;8.774;2023-04-06T06:19:48;94013.13;;;-1.98;100.00
51829;BME280;37881;48.024;8.774;2023-04-06T06:22:15;94007.91;;;-1.82;100.00
51829;BME280;37881;48.024;8.774;2023-04-06T06:24:42;94010.78;;;-1.87;100.00
51829;BME280;37881;48.024;8.774;2023-04-06T06:27:09;94007.91;;;-1.82;100.00
51829;BME280;37881;48.024;8.774;2023-04-06T06:29:35;94007.91;;;-1.57;100.00
51829;BME280;37881;48.024;8.774;2023-04-06T06:32:03;94017.66;;;-1.65;100.00
51829;BME280;37881;48.024;8.774;2023-04-06T06:34:30;94011.03;;;-1.43;100.00
51829;BME280;37881;48.024;8.774;2023-04-06T06:36:57;94016.31;;;-1.59;100.00
51829;BME280;37881;48.024;8.774;2023-04-06T06:39:24;94009.50;;;-1.44;100.00
51829;BME280;37881;48.024;8.774;2023-04-06T06:41:51;94015.19;;;-1.21;100.00
51829;BME280;37881;48.024;8.774;2023-04-06T06:44:18;94012.22;;;-0.91;100.00
51829;BME280;37881;48.024;8.774;2023-04-06T06:46:45;94007.63;;;-0.91;100.00
51829;BME280;37881;48.024;8.774;2023-04-06T06:49:11;94011.63;;;-0.72;100.00
51829;BME280;37881;48.024;8.774;2023-04-06T06:51:38;94008.59;;;-0.43;100.00
51829;BME280;37881;48.024;8.774;2023-04-06T06:54:05;94009.38;;;1.52;100.00
51829;BME280;37881;48.024;8.774;2023-04-06T06:56:33;94012.47;;;4.82;79.47
51829;BME280;37881;48.024;8.774;2023-04-06T06:59:02;94004.38;;;7.18;65.76
51829;BME280;37881;48.024;8.774;2023-04-06T07:01:29;93997.50;;;8.83;57.08
51829;BME280;37881;48.024;8.774;2023-04-06T07:03:56;93992.63;;;9.05;51.07
51829;BME280;37881;48.024;8.774;2023-04-06T07:06:22;94002.81;;;9.84;48.93
51829;BME280;37881;48.024;8.774;2023-04-06T07:08:49;94000.66;;;10.67;45.80
51829;BME280;37881;48.024;8.774;2023-04-06T07:11:16;93992.69;;;11.00;43.31
51829;BME280;37881;48.024;8.774;2023-04-06T07:13:42;93995.72;;;12.56;40.20
51829;BME280;37881;48.024;8.774;2023-04-06T07:16:09;93992.84;;;13.33;38.22
51829;BME280;37881;48.024;8.774;2023-04-06T07:18:36;93992.53;;;13.11;38.80
51829;BME280;37881;48.024;8.774;2023-04-06T07:21:03;93986.91;;;15.54;35.13
51829;BME280;37881;48.024;8.774;2023-04-06T07:23:30;93988.84;;;16.36;32.81
51829;BME280;37881;48.024;8.774;2023-04-06T07:25:56;93984.66;;;14.88;34.12
51829;BME280;37881;48.024;8.774;2023-04-06T07:28:23;93988.31;;;14.85;33.49
51829;BME280;37881;48.024;8.774;2023-04-06T07:30:50;93986.06;;;15.92;32.21
51829;BME280;37881;48.024;8.774;2023-04-06T07:33:17;93985.28;;;15.44;33.01
51829;BME280;37881;48.024;8.774;2023-04-06T07:35:43;93988.25;;;16.63;31.16
51829;BME280;37881;48.024;8.774;2023-04-06T07:38:10;93983.88;;;17.74;29.98
51829;BME280;37881;48.024;8.774;2023-04-06T07:40:37;93982.94;;;17.59;29.10
51829;BME280;37881;48.024;8.774;2023-04-06T07:43:04;93983.22;;;17.02;29.85
51829;BME280;37881;48.024;8.774;2023-04-06T07:45:31;93985.88;;;18.75;28.73
51829;BME280;37881;48.024;8.774;2023-04-06T07:47:58;93985.16;;;19.51;26.66
51829;BME280;37881;48.024;8.774;2023-04-06T07:50:24;93979.19;;;19.91;26.68
51829;BME280;37881;48.024;8.774;2023-04-06T07:52:51;93983.75;;;18.52;26.91
51829;BME280;37881;48.024;8.774;2023-04-06T07:55:18;93980.66;;;18.59;27.20
51829;BME280;37881;48.024;8.774;2023-04-06T07:57:45;93976.53;;;19.40;26.62
51829;BME280;37881;48.024;8.774;2023-04-06T08:00:12;93978.06;;;21.41;24.48
51829;BME280;37881;48.024;8.774;2023-04-06T08:02:39;93979.28;;;22.31;22.81
51829;BME280;37881;48.024;8.774;2023-04-06T08:05:06;93978.13;;;23.54;21.27
51829;BME280;37881;48.024;8.774;2023-04-06T08:07:33;93977.53;;;23.39;21.26
51829;BME280;37881;48.024;8.774;2023-04-06T08:10:02;93975.59;;;22.92;21.93
51829;BME280;37881;48.024;8.774;2023-04-06T08:12:29;93970.91;;;23.10;21.69
51829;BME280;37881;48.024;8.774;2023-04-06T08:14:56;93972.06;;;21.13;22.33
51829;BME280;37881;48.024;8.774;2023-04-06T08:17:23;93964.34;;;19.94;23.24
51829;BME280;37881;48.024;8.774;2023-04-06T08:19:50;93970.03;;;18.21;23.07
51829;BME280;37881;48.024;8.774;2023-04-06T08:22:16;93962.16;;;21.83;20.71
51829;BME280;37881;48.024;8.774;2023-04-06T08:24:43;93959.16;;;19.21;23.34
51829;BME280;37881;48.024;8.774;2023-04-06T08:27:10;93957.91;;;21.87;22.41
51829;BME280;37881;48.024;8.774;2023-04-06T08:29:37;93958.38;;;21.65;21.89
51829;BME280;37881;48.024;8.774;2023-04-06T08:32:03;93953.38;;;22.83;20.77
51829;BME280;37881;48.024;8.774;2023-04-06T08:34:32;93960.47;;;21.50;20.23
51829;BME280;37881;48.024;8.774;2023-04-06T08:36:59;93955.53;;;21.45;20.16
51829;BME280;37881;48.024;8.774;2023-04-06T08:39:27;93954.44;;;21.22;20.25
51829;BME280;37881;48.024;8.774;2023-04-06T08:41:55;93955.81;;;22.03;19.41
51829;BME280;37881;48.024;8.774;2023-04-06T08:44:23;93948.84;;;23.92;17.47
51829;BME280;37881;48.024;8.774;2023-04-06T08:46:50;93961.28;;;21.06;19.20
51829;BME280;37881;48.024;8.774;2023-04-06T08:49:19;93956.66;;;20.58;19.37
51829;BME280;37881;48.024;8.774;2023-04-06T08:51:48;93956.44;;;21.71;18.98
51829;BME280;37881;48.024;8.774;2023-04-06T08:54:15;93964.47;;;22.05;19.71
51829;BME280;37881;48.024;8.774;2023-04-06T08:56:42;93949.19;;;20.79;19.17
51829;BME280;37881;48.024;8.774;2023-04-06T08:59:09;93962.69;;;21.31;19.01
51829;BME280;37881;48.024;8.774;2023-04-06T09:01:39;93953.09;;;22.55;17.91
51829;BME280;37881;48.024;8.774;2023-04-06T09:04:08;93951.09;;;23.45;17.45
51829;BME280;37881;48.024;8.774;2023-04-06T09:06:38;93951.06;;;18.99;20.30
51829;BME280;37881;48.024;8.774;2023-04-06T09:09:07;93964.78;;;17.67;21.77
51829;BME280;37881;48.024;8.774;2023-04-06T09:11:53;93953.47;;;22.94;17.64
51829;BME280;37881;48.024;8.774;2023-04-06T09:14:37;93953.22;;;22.40;17.13
51829;BME280;37881;48.024;8.774;2023-04-06T09:17:05;93956.78;;;22.93;16.49
51829;BME280;37881;48.024;8.774;2023-04-06T09:19:32;93942.69;;;23.83;15.67
51829;BME280;37881;48.024;8.774;2023-04-06T09:22:05;93960.72;;;23.07;15.72
51829;BME280;37881;48.024;8.774;2023-04-06T09:24:45;93955.47;;;22.36;16.16
51829;BME280;37881;48.024;8.774;2023-04-06T09:27:13;93947.97;;;22.74;15.58
51829;BME280;37881;48.024;8.774;2023-04-06T09:29:44;93934.03;;;24.52;14.69
51829;BME280;37881;48.024;8.774;2023-04-06T09:32:11;93942.19;;;24.56;13.93
51829;BME280;37881;48.024;8.774;2023-04-06T09:34:38;93946.94;;;22.25;16.52
51829;BME280;37881;48.024;8.774;2023-04-06T09:37:15;93947.13;;;23.63;14.81
51829;BME280;37881;48.024;8.774;2023-04-06T09:39:42;93942.19;;;22.57;14.70
51829;BME280;37881;48.024;8.774;2023-04-06T09:42:09;93944.34;;;23.00;14.71
51829;BME280;37881;48.024;8.774;2023-04-06T09:44:36;93944.00;;;23.93;14.65
51829;BME280;37881;48.024;8.774;2023-04-06T09:47:06;93940.09;;;23.42;13.86
51829;BME280;37881;48.024;8.774;2023-04-06T09:49:34;93930.66;;;24.42;13.42
51829;BME280;37881;48.024;8.774;2023-04-06T09:52:03;93929.41;;;22.04;15.18
51829;BME280;37881;48.024;8.774;2023-04-06T09:54:31;93937.34;;;21.34;15.37
51829;BME280;37881;48.024;8.774;2023-04-06T09:57:08;93925.28;;;22.20;14.96
51829;BME280;37881;48.024;8.774;2023-04-06T10:02:18;93933.78;;;24.61;13.58
51829;BME280;37881;48.024;8.774;2023-04-06T10:04:56;93923.34;;;24.62;13.18
51829;BME280;37881;48.024;8.774;2023-04-06T10:07:25;93932.13;;;23.29;13.90
51829;BME280;37881;48.024;8.774;2023-04-06T10:09:54;93933.97;;;23.38;14.34
51829;BME280;37881;48.024;8.774;2023-04-06T10:12:21;93931.22;;;21.86;15.29
51829;BME280;37881;48.024;8.774;2023-04-06T10:14:48;93937.75;;;22.71;15.19
51829;BME280;37881;48.024;8.774;2023-04-06T10:17:15;93921.31;;;25.19;13.27
51829;BME280;37881;48.024;8.774;2023-04-06T10:22:31;93928.28;;;23.64;14.34
51829;BME280;37881;48.024;8.774;2023-04-06T10:25:02;93925.31;;;23.04;15.19
51829;BME280;37881;48.024;8.774;2023-04-06T10:27:29;93922.84;;;20.65;16.70
51829;BME280;37881;48.024;8.774;2023-04-06T10:30:04;93918.94;;;23.78;14.26
51829;BME280;37881;48.024;8.774;2023-04-06T10:32:36;93927.66;;;25.76;12.31
51829;BME280;37881;48.024;8.774;2023-04-06T10:35:10;93927.25;;;23.61;14.48
51829;BME280;37881;48.024;8.774;2023-04-06T10:38:02;93920.91;;;24.21;13.80
51829;BME280;37881;48.024;8.774;2023-04-06T10:40:28;93923.25;;;26.50;12.09
51829;BME280;37881;48.024;8.774;2023-04-06T10:43:08;93917.38;;;25.95;12.19
51829;BME280;37881;48.024;8.774;2023-04-06T10:45:36;93916.72;;;24.82;12.63
51829;BME280;37881;48.024;8.774;2023-04-06T10:48:17;93920.13;;;26.12;12.28
51829;BME280;37881;48.024;8.774;2023-04-06T10:50:48;93920.47;;;25.80;13.23
51829;BME280;37881;48.024;8.774;2023-04-06T10:53:42;93927.94;;;24.82;14.15
51829;BME280;37881;48.024;8.774;2023-04-06T10:56:10;93926.44;;;22.86;15.40
51829;BME280;37881;48.024;8.774;2023-04-06T10:58:44;93930.94;;;23.04;16.38
51829;BME280;37881;48.024;8.774;2023-04-06T11:01:14;93924.44;;;22.34;16.38
51829;BME280;37881;48.024;8.774;2023-04-06T11:03:45;93916.47;;;22.53;16.33
51829;BME280;37881;48.024;8.774;2023-04-06T11:06:24;93913.66;;;20.20;18.27
51829;BME280;37881;48.024;8.774;2023-04-06T11:08:52;93913.19;;;19.01;19.92
51829;BME280;37881;48.024;8.774;2023-04-06T11:11:21;93917.16;;;21.25;18.30
51829;BME280;37881;48.024;8.774;2023-04-06T11:13:49;93915.53;;;21.33;17.68
51829;BME280;37881;48.024;8.774;2023-04-06T11:16:19;93910.41;;;19.83;18.26
51829;BME280;37881;48.024;8.774;2023-04-06T11:19:02;93905.69;;;19.26;19.39
51829;BME280;37881;48.024;8.774;2023-04-06T11:21:37;93903.50;;;18.96;19.27
51829;BME280;37881;48.024;8.774;2023-04-06T11:26:40;93904.03;;;15.85;22.59
51829;BME280;37881;48.024;8.774;2023-04-06T11:29:07;93909.66;;;17.20;22.27
51829;BME280;37881;48.024;8.774;2023-04-06T11:31:51;93905.41;;;16.56;22.14
51829;BME280;37881;48.024;8.774;2023-04-06T11:34:20;93905.22;;;15.62;24.04
51829;BME280;37881;48.024;8.774;2023-04-06T11:36:49;93911.91;;;13.85;25.33
51829;BME280;37881;48.024;8.774;2023-04-06T11:39:21;93894.22;;;14.25;24.99
51829;BME280;37881;48.024;8.774;2023-04-06T11:41:50;93894.13;;;14.41;25.55
51829;BME280;37881;48.024;8.774;2023-04-06T11:46:57;93895.44;;;15.01;24.70
51829;BME280;37881;48.024;8.774;2023-04-06T11:49:30;93904.28;;;14.44;25.29
51829;BME280;37881;48.024;8.774;2023-04-06T11:51:59;93898.22;;;14.62;25.15
51829;BME280;37881;48.024;8.774;2023-04-06T11:54:36;93891.91;;;15.00;24.62
51829;BME280;37881;48.024;8.774;2023-04-06T11:57:04;93892.78;;;14.33;25.75
51829;BME280;37881;48.024;8.774;2023-04-06T11:59:32;93886.47;;;14.07;26.85
51829;BME280;37881;48.024;8.774;2023-04-06T12:02:01;93886.72;;;13.83;26.93
51829;BME280;37881;48.024;8.774;2023-04-06T12:04:28;93886.16;;;14.30;27.07
51829;BME280;37881;48.024;8.774;2023-04-06T12:06:55;93878.44;;;14.89;25.61
51829;BME280;37881;48.024;8.774;2023-04-06T12:09:22;93886.97;;;14.69;25.43
51829;BME280;37881;48.024;8.774;2023-04-06T12:11:49;93872.25;;;14.47;26.19
51829;BME280;37881;48.024;8.774;2023-04-06T12:14:16;93878.59;;;13.50;27.01
51829;BME280;37881;48.024;8.774;2023-04-06T12:16:43;93878.19;;;12.37;28.41
51829;BME280;37881;48.024;8.774;2023-04-06T12:19:10;93886.94;;;12.15;28.59
51829;BME280;37881;48.024;8.774;2023-04-06T12:21:37;93884.09;;;12.19;28.94
51829;BME280;37881;48.024;8.774;2023-04-06T12:24:04;93872.28;;;12.55;28.05
51829;BME280;37881;48.024;8.774;2023-04-06T12:26:32;93873.56;;;12.99;27.84
51829;BME280;37881;48.024;8.774;2023-04-06T12:28:59;93879.06;;;13.16;28.20
51829;BME280;37881;48.024;8.774;2023-04-06T12:31:37;93872.03;;;12.82;28.14
51829;BME280;37881;48.024;8.774;2023-04-06T12:34:07;93868.41;;;13.47;27.60
51829;BME280;37881;48.024;8.774;2023-04-06T12:36:34;93864.41;;;13.65;27.55
51829;BME280;37881;48.024;8.774;2023-04-06T12:39:01;93860.59;;;13.88;27.55
51829;BME280;37881;48.024;8.774;2023-04-06T12:41:29;93855.47;;;14.54;27.52
51829;BME280;37881;48.024;8.774;2023-04-06T12:43:56;93856.38;;;13.83;27.26
51829;BME280;37881;48.024;8.774;2023-04-06T12:46:23;93869.53;;;11.62;28.67
51829;BME280;37881;48.024;8.774;2023-04-06T12:48:51;93860.97;;;12.16;28.68
51829;BME280;37881;48.024;8.774;2023-04-06T12:51:20;93859.97;;;12.92;28.38
51829;BME280;37881;48.024;8.774;2023-04-06T12:53:47;93848.78;;;13.87;26.83
51829;BME280;37881;48.024;8.774;2023-04-06T12:56:16;93848.44;;;13.72;29.35
51829;BME280;37881;48.024;8.774;2023-04-06T12:58:47;93847.69;;;15.00;26.68
51829;BME280;37881;48.024;8.774;2023-04-06T13:01:14;93847.78;;;15.09;25.79
51829;BME280;37881;48.024;8.774;2023-04-06T13:03:41;93849.28;;;14.63;26.60
51829;BME280;37881;48.024;8.774;2023-04-06T13:06:08;93849.16;;;14.41;25.26
51829;BME280;37881;48.024;8.774;2023-04-06T13:08:37;93851.03;;;13.92;25.97